Time;durP1;ratioP1;P1;durP2;ratioP2;P2;SDS_P1;SDS_P2;PMS_P1;PMS_P2;Temp;Humidity;BMP_temperature;BMP_pressure;BME280_temperature;BME280_humidity;BME280_pressure;Samples;Min_cycle;Max_cycle;Signal;HPM_P1;HPM_P2
2023/03/29 00:01:42;;;;;;;4.60;1.35;;;;;;;;;;5052528;28;20095;-80
2023/03/29 00:04:12;;;;;;;2.53;1.35;;;;;;;;;;5053667;28;20087;-81
2023/03/29 00:06:40;;;;;;;9.02;1.55;;;;;;;;;;5053404;28;20492;-81
2023/03/29 00:09:08;;;;;;;4.40;1.40;;;;;;;;;;5052559;28;20128;-80
2023/03/29 00:11:36;;;;;;;5.10;1.63;;;;;;;;;;5053234;28;20136;-80
2023/03/29 00:14:03;;;;;;;5.35;1.50;;;;;;;;;;5052391;28;20055;-80
2023/03/29 00:16:30;;;;;;;3.90;1.50;;;;;;;;;;5052071;28;20130;-81
2023/03/29 00:18:58;;;;;;;4.80;1.50;;;;;;;;;;5051771;28;20048;-80
2023/03/29 00:21:25;;;;;;;3.78;1.17;;;;;;;;;;5051710;28;20138;-80
2023/03/29 00:23:52;;;;;;;7.22;1.92;;;;;;;;;;5053330;28;20060;-80
2023/03/29 00:26:19;;;;;;;2.20;1.30;;;;;;;;;;5053152;28;20112;-81
2023/03/29 00:28:46;;;;;;;4.10;1.75;;;;;;;;;;5053112;28;20052;-80
2023/03/29 00:31:15;;;;;;;5.82;2.22;;;;;;;;;;5053247;28;20084;-80
2023/03/29 00:33:43;;;;;;;7.22;1.98;;;;;;;;;;5052078;28;20052;-79
2023/03/29 00:36:11;;;;;;;5.65;1.55;;;;;;;;;;5052869;28;20055;-81
2023/03/29 00:38:39;;;;;;;5.50;1.65;;;;;;;;;;5052974;28;20143;-80
2023/03/29 00:41:07;;;;;;;2.90;1.52;;;;;;;;;;5052946;28;20045;-80
2023/03/29 00:44:10;;;;;;;5.53;1.70;;;;;;;;;;5051925;28;20094;-80
2023/03/29 00:46:37;;;;;;;2.25;1.55;;;;;;;;;;4971948;28;20073;-80
2023/03/29 00:49:08;;;;;;;3.63;1.83;;;;;;;;;;5033522;28;20118;-79
2023/03/29 00:51:36;;;;;;;6.40;1.95;;;;;;;;;;5051995;28;20132;-80
2023/03/29 00:54:05;;;;;;;6.50;1.73;;;;;;;;;;5052218;28;20491;-79
2023/03/29 00:56:35;;;;;;;4.30;1.73;;;;;;;;;;5051640;28;20048;-81
2023/03/29 00:59:04;;;;;;;5.97;1.58;;;;;;;;;;5051808;28;20053;-80
2023/03/29 01:01:40;;;;;;;6.28;1.70;;;;;;;;;;5052526;28;20411;-80
2023/03/29 01:04:17;;;;;;;2.92;1.70;;;;;;;;;;5052988;28;20088;-79
2023/03/29 01:06:48;;;;;;;2.33;1.60;;;;;;;;;;5051354;28;20105;-80
2023/03/29 01:09:17;;;;;;;4.70;1.88;;;;;;;;;;5051669;28;20052;-81
2023/03/29 01:11:47;;;;;;;2.78;1.67;;;;;;;;;;5051248;28;20051;-79
2023/03/29 01:14:17;;;;;;;5.45;1.95;;;;;;;;;;5051173;28;20145;-79
2023/03/29 01:16:45;;;;;;;2.03;1.60;;;;;;;;;;5052280;28;20049;-80
2023/03/29 01:19:14;;;;;;;3.33;1.60;;;;;;;;;;5051424;28;20057;-80
2023/03/29 01:21:50;;;;;;;4.35;1.70;;;;;;;;;;5051127;28;20053;-80
2023/03/29 01:24:26;;;;;;;2.60;1.55;;;;;;;;;;5052059;28;20052;-79
2023/03/29 01:27:14;;;;;;;4.63;1.73;;;;;;;;;;5051018;28;20045;-81
2023/03/29 01:29:45;;;;;;;6.45;2.45;;;;;;;;;;5051179;28;20059;-80
2023/03/29 01:32:16;;;;;;;7.13;1.70;;;;;;;;;;5052309;28;20492;-80
2023/03/29 01:34:46;;;;;;;4.25;1.73;;;;;;;;;;5050896;28;20128;-79
2023/03/29 01:37:25;;;;;;;4.95;1.35;;;;;;;;;;5050887;28;20132;-80
2023/03/29 01:39:53;;;;;;;3.88;2.10;;;;;;;;;;5050959;28;20474;-81
2023/03/29 01:42:39;;;;;;;3.35;1.60;;;;;;;;;;5052177;28;20076;-81
2023/03/29 01:45:21;;;;;;;5.45;1.77;;;;;;;;;;5052102;28;20492;-81
2023/03/29 01:47:54;;;;;;;7.88;1.75;;;;;;;;;;5051920;28;20049;-81
2023/03/29 01:50:22;;;;;;;;;;;;;;;;;;5051361;28;20060;-80
2023/03/29 01:52:56;;;;;;;1.75;1.40;;;;;;;;;;5050932;28;19924;-79
2023/03/29 01:55:26;;;;;;;6.88;1.98;;;;;;;;;;5050844;28;20410;-79
2023/03/29 01:57:55;;;;;;;7.05;2.00;;;;;;;;;;5051392;28;20057;-82
2023/03/29 02:00:26;;;;;;;3.67;2.03;;;;;;;;;;5052779;28;20044;-81
2023/03/29 02:02:54;;;;;;;3.15;2.00;;;;;;;;;;5051442;28;20080;-81
2023/03/29 02:05:23;;;;;;;4.18;2.13;;;;;;;;;;5051429;28;20404;-82
2023/03/29 02:07:51;;;;;;;5.50;2.25;;;;;;;;;;5052457;28;20049;-83
2023/03/29 02:10:19;;;;;;;5.20;3.10;;;;;;;;;;5052401;28;20045;-81
2023/03/29 02:12:46;;;;;;;2.85;2.10;;;;;;;;;;5052598;28;20496;-80
2023/03/29 02:15:18;;;;;;;4.82;2.58;;;;;;;;;;5051120;28;20045;-80
2023/03/29 02:17:48;;;;;;;3.80;2.65;;;;;;;;;;5052044;28;20045;-80
2023/03/29 02:20:18;;;;;;;7.65;3.35;;;;;;;;;;5051276;28;20122;-82
2023/03/29 02:22:54;;;;;;;6.18;3.47;;;;;;;;;;5052120;28;20053;-80
2023/03/29 02:25:23;;;;;;;5.60;3.17;;;;;;;;;;5051064;28;20057;-82
2023/03/29 02:27:51;;;;;;;7.97;3.72;;;;;;;;;;5052089;28;20053;-82
2023/03/29 02:30:19;;;;;;;5.38;3.35;;;;;;;;;;5050918;28;20049;-80
2023/03/29 02:32:58;;;;;;;5.10;3.80;;;;;;;;;;5050894;28;20055;-81
2023/03/29 02:35:47;;;;;;;7.72;4.00;;;;;;;;;;5050552;28;20110;-81
2023/03/29 02:38:16;;;;;;;8.18;4.18;;;;;;;;;;5050959;28;20478;-80
2023/03/29 02:40:43;;;;;;;6.55;3.97;;;;;;;;;;5050721;28;20131;-82
2023/03/29 02:43:11;;;;;;;9.15;4.57;;;;;;;;;;5052946;28;20484;-80
2023/03/29 02:45:39;;;;;;;6.50;4.15;;;;;;;;;;5054087;28;20128;-81
2023/03/29 02:48:08;;;;;;;9.07;5.05;;;;;;;;;;5054274;28;20136;-80
2023/03/29 02:50:37;;;;;;;9.40;4.65;;;;;;;;;;5053935;28;20045;-82
2023/03/29 02:53:07;;;;;;;6.38;4.50;;;;;;;;;;5055182;28;20419;-80
2023/03/29 02:55:35;;;;;;;7.68;4.90;;;;;;;;;;5054075;28;20080;-80
2023/03/29 02:58:06;;;;;;;9.15;5.18;;;;;;;;;;5054939;28;20088;-79
2023/03/29 03:00:39;;;;;;;10.32;5.78;;;;;;;;;;5053734;28;20152;-80
2023/03/29 03:03:07;;;;;;;8.85;5.40;;;;;;;;;;5054938;28;20534;-81
2023/03/29 03:05:35;;;;;;;7.25;5.10;;;;;;;;;;5053655;28;20478;-79
2023/03/29 03:08:03;;;;;;;9.52;4.85;;;;;;;;;;5054748;28;20518;-80
2023/03/29 03:10:32;;;;;;;6.50;4.97;;;;;;;;;;5054806;28;20080;-79
2023/03/29 03:13:00;;;;;;;7.20;4.93;;;;;;;;;;5054878;28;20606;-80
2023/03/29 03:15:27;;;;;;;8.43;5.22;;;;;;;;;;5053723;28;20414;-81
2023/03/29 03:17:54;;;;;;;5.18;4.68;;;;;;;;;;5053229;28;20430;-80
2023/03/29 03:20:22;;;;;;;8.88;5.15;;;;;;;;;;5054522;28;20053;-81
2023/03/29 03:22:49;;;;;;;10.55;5.20;;;;;;;;;;5054526;28;20056;-80
2023/03/29 03:25:19;;;;;;;7.80;5.55;;;;;;;;;;5053090;28;20053;-81
2023/03/29 03:27:50;;;;;;;7.30;5.40;;;;;;;;;;5054243;28;20124;-82
2023/03/29 03:30:17;;;;;;;10.70;5.82;;;;;;;;;;5053559;28;20566;-79
2023/03/29 03:32:45;;;;;;;7.88;5.20;;;;;;;;;;5053163;28;20049;-81
2023/03/29 03:35:12;;;;;;;7.35;5.25;;;;;;;;;;5054459;28;20479;-80
2023/03/29 03:37:40;;;;;;;6.82;5.25;;;;;;;;;;5054009;28;20140;-80
2023/03/29 03:40:08;;;;;;;6.63;5.13;;;;;;;;;;5054576;28;20044;-80
2023/03/29 03:42:35;;;;;;;13.32;6.15;;;;;;;;;;5054093;28;20053;-81
2023/03/29 03:45:02;;;;;;;5.93;5.28;;;;;;;;;;5052894;28;20090;-81
2023/03/29 03:47:29;;;;;;;9.48;5.63;;;;;;;;;;5054125;28;20045;-82
2023/03/29 03:49:57;;;;;;;6.75;4.78;;;;;;;;;;5053752;28;20415;-80
2023/03/29 03:52:25;;;;;;;11.13;5.40;;;;;;;;;;5053986;28;20052;-80
2023/03/29 03:54:52;;;;;;;8.93;5.40;;;;;;;;;;5053870;28;20561;-81
2023/03/29 03:57:19;;;;;;;9.00;5.50;;;;;;;;;;5052408;28;20056;-79
2023/03/29 03:59:46;;;;;;;6.65;4.90;;;;;;;;;;5052489;28;20139;-81
2023/03/29 04:02:14;;;;;;;8.88;4.78;;;;;;;;;;5053801;28;20135;-80
2023/03/29 04:04:41;;;;;;;8.55;4.55;;;;;;;;;;5053666;28;20174;-80
2023/03/29 04:07:11;;;;;;;6.07;4.43;;;;;;;;;;5055151;28;20040;-81
2023/03/29 04:09:39;;;;;;;8.13;4.75;;;;;;;;;;5054278;28;20056;-81
2023/03/29 04:12:06;;;;;;;11.70;6.00;;;;;;;;;;5054802;28;20071;-80
2023/03/29 04:14:34;;;;;;;10.23;5.68;;;;;;;;;;5054431;28;20144;-81
2023/03/29 04:17:01;;;;;;;6.07;4.80;;;;;;;;;;5054131;28;20081;-81
2023/03/29 04:19:28;;;;;;;11.23;5.50;;;;;;;;;;5053067;28;20041;-80
2023/03/29 04:21:55;;;;;;;5.63;4.47;;;;;;;;;;5053964;28;20814;-81
2023/03/29 04:24:23;;;;;;;5.15;4.68;;;;;;;;;;5054025;28;20106;-81
2023/03/29 04:26:50;;;;;;;5.93;4.72;;;;;;;;;;5054449;28;20053;-81
2023/03/29 04:29:17;;;;;;;7.15;4.95;;;;;;;;;;5054089;28;20045;-83
2023/03/29 04:31:45;;;;;;;6.47;4.57;;;;;;;;;;5052951;28;20068;-81
2023/03/29 04:34:12;;;;;;;8.50;4.75;;;;;;;;;;5054572;28;20117;-83
2023/03/29 04:36:39;;;;;;;7.32;4.68;;;;;;;;;;5054413;28;20040;-81
2023/03/29 04:39:06;;;;;;;7.68;5.50;;;;;;;;;;5053315;28;20053;-81
2023/03/29 04:41:34;;;;;;;7.13;5.07;;;;;;;;;;5052778;28;20064;-82
2023/03/29 04:44:01;;;;;;;5.72;4.68;;;;;;;;;;5052122;28;20048;-81
2023/03/29 04:46:29;;;;;;;6.07;4.90;;;;;;;;;;5053226;28;20055;-81
2023/03/29 04:48:56;;;;;;;6.05;5.22;;;;;;;;;;5052169;28;20045;-81
2023/03/29 04:51:23;;;;;;;5.47;4.57;;;;;;;;;;5052114;28;20049;-81
2023/03/29 04:53:51;;;;;;;8.00;4.70;;;;;;;;;;5053424;28;20513;-81
2023/03/29 04:56:18;;;;;;;5.80;4.93;;;;;;;;;;5051928;28;20056;-82
2023/03/29 04:58:45;;;;;;;7.65;4.65;;;;;;;;;;5051616;28;20063;-80
2023/03/29 05:01:12;;;;;;;5.38;4.95;;;;;;;;;;5053035;28;20456;-81
2023/03/29 05:03:39;;;;;;;6.50;4.90;;;;;;;;;;5052945;28;20056;-82
2023/03/29 05:06:07;;;;;;;10.10;5.22;;;;;;;;;;5052326;28;20071;-82
2023/03/29 05:08:38;;;;;;;5.32;4.65;;;;;;;;;;5052993;28;20049;-81
2023/03/29 05:11:06;;;;;;;6.63;4.78;;;;;;;;;;5054064;28;20073;-81
2023/03/29 05:13:34;;;;;;;8.68;4.75;;;;;;;;;;5053759;28;20431;-81
2023/03/29 05:16:02;;;;;;;8.77;4.95;;;;;;;;;;5052858;28;20073;-81
2023/03/29 05:18:30;;;;;;;10.98;5.45;;;;;;;;;;5052633;28;20088;-81
2023/03/29 05:20:58;;;;;;;6.00;5.38;;;;;;;;;;5051730;28;20492;-81
2023/03/29 05:23:26;;;;;;;5.05;4.38;;;;;;;;;;5051370;28;20049;-81
2023/03/29 05:25:53;;;;;;;5.38;4.85;;;;;;;;;;5050897;28;20128;-81
2023/03/29 05:28:20;;;;;;;12.60;5.97;;;;;;;;;;5052433;28;20507;-80
2023/03/29 05:30:48;;;;;;;8.55;5.15;;;;;;;;;;5052339;28;20056;-82
2023/03/29 05:33:15;;;;;;;6.68;5.07;;;;;;;;;;5051211;28;20049;-81
2023/03/29 05:35:42;;;;;;;5.97;5.20;;;;;;;;;;5052122;28;20084;-81
2023/03/29 05:38:09;;;;;;;6.65;4.82;;;;;;;;;;5051097;28;20045;-80
2023/03/29 05:40:37;;;;;;;7.60;4.72;;;;;;;;;;5051111;28;20056;-80
2023/03/29 05:43:04;;;;;;;6.85;5.10;;;;;;;;;;5052346;28;20503;-83
2023/03/29 05:45:32;;;;;;;10.75;6.55;;;;;;;;;;5052277;28;20053;-81
2023/03/29 05:48:00;;;;;;;5.15;4.60;;;;;;;;;;5051476;28;20579;-83
2023/03/29 05:50:27;;;;;;;5.70;5.10;;;;;;;;;;5052326;28;20044;-82
2023/03/29 05:52:54;;;;;;;32.97;18.67;;;;;;;;;;5052233;28;20065;-80
2023/03/29 05:55:22;;;;;;;17.13;9.73;;;;;;;;;;5052054;28;20044;-82
2023/03/29 05:57:49;;;;;;;229.82;103.35;;;;;;;;;;5052065;28;20061;-81
2023/03/29 06:00:22;;;;;;;52.53;26.75;;;;;;;;;;5052128;28;20104;-81
2023/03/29 06:02:55;;;;;;;62.63;35.13;;;;;;;;;;5051030;28;20412;-82
2023/03/29 06:05:32;;;;;;;13.95;8.93;;;;;;;;;;5051675;28;20064;-81
2023/03/29 06:08:00;;;;;;;8.15;5.35;;;;;;;;;;5051038;28;20511;-81
2023/03/29 06:10:27;;;;;;;11.75;7.30;;;;;;;;;;5052134;28;20045;-81
2023/03/29 06:12:55;;;;;;;8.40;5.53;;;;;;;;;;5051935;28;20049;-81
2023/03/29 06:15:23;;;;;;;5.45;4.95;;;;;;;;;;5052218;28;20055;-80
2023/03/29 06:17:50;;;;;;;5.13;4.55;;;;;;;;;;5054080;28;20049;-82
2023/03/29 06:20:17;;;;;;;7.63;4.78;;;;;;;;;;5055201;28;20079;-82
2023/03/29 06:22:46;;;;;;;9.25;5.05;;;;;;;;;;5056207;28;20427;-82
2023/03/29 06:25:14;;;;;;;6.47;4.70;;;;;;;;;;5055887;28;20053;-82
2023/03/29 06:27:41;;;;;;;9.50;6.10;;;;;;;;;;5054710;28;20088;-81
2023/03/29 06:30:09;;;;;;;5.53;4.60;;;;;;;;;;5035801;28;20056;-81
2023/03/29 06:32:36;;;;;;;6.18;4.25;;;;;;;;;;5042100;28;20465;-81
2023/03/29 06:35:03;;;;;;;4.63;4.10;;;;;;;;;;5042273;28;20053;-81
2023/03/29 06:37:31;;;;;;;5.20;4.22;;;;;;;;;;5054829;28;20095;-81
2023/03/29 06:39:59;;;;;;;7.00;4.07;;;;;;;;;;5052067;28;20132;-81
2023/03/29 06:42:27;;;;;;;5.28;3.85;;;;;;;;;;5056017;28;20052;-81
2023/03/29 06:44:54;;;;;;;6.03;4.40;;;;;;;;;;5042021;28;20136;-81
2023/03/29 06:47:23;;;;;;;9.60;4.97;;;;;;;;;;5038875;28;20105;-82
2023/03/29 06:49:50;;;;;;;6.07;5.20;;;;;;;;;;5039117;28;20088;-82
2023/03/29 06:52:17;;;;;;;9.98;5.50;;;;;;;;;;5038100;28;20132;-82
2023/03/29 06:54:45;;;;;;;5.95;4.65;;;;;;;;;;5038295;28;20052;-83
2023/03/29 06:57:12;;;;;;;6.00;3.80;;;;;;;;;;5036039;28;20045;-82
2023/03/29 06:59:40;;;;;;;4.30;3.38;;;;;;;;;;5035806;28;20136;-81
2023/03/29 07:02:11;;;;;;;7.70;3.55;;;;;;;;;;5035944;28;20494;-81
2023/03/29 07:04:40;;;;;;;9.55;3.83;;;;;;;;;;5035097;28;20057;-82
2023/03/29 07:07:18;;;;;;;6.80;3.47;;;;;;;;;;5034838;28;20053;-81
2023/03/29 07:09:52;;;;;;;7.53;3.70;;;;;;;;;;5035183;28;20045;-79
2023/03/29 07:12:21;;;;;;;4.28;2.78;;;;;;;;;;5035738;28;20416;-81
2023/03/29 07:14:48;;;;;;;3.20;2.85;;;;;;;;;;5036108;28;20049;-82
2023/03/29 07:17:17;;;;;;;4.68;2.78;;;;;;;;;;5039732;28;20050;-82
2023/03/29 07:19:44;;;;;;;4.45;2.75;;;;;;;;;;5041067;28;20079;-82
2023/03/29 07:22:12;;;;;;;8.75;3.30;;;;;;;;;;5038741;28;20077;-81
2023/03/29 07:24:40;;;;;;;3.30;2.45;;;;;;;;;;5038431;28;20134;-81
2023/03/29 07:27:07;;;;;;;7.63;3.65;;;;;;;;;;5038945;28;20055;-81
2023/03/29 07:29:34;;;;;;;3.88;3.33;;;;;;;;;;5038349;28;20049;-83
2023/03/29 07:32:03;;;;;;;6.85;2.70;;;;;;;;;;5036579;28;20085;-81
2023/03/29 07:34:31;;;;;;;4.63;2.70;;;;;;;;;;5033314;28;20077;-81
2023/03/29 07:36:58;;;;;;;3.20;2.53;;;;;;;;;;5032144;28;20049;-81
2023/03/29 07:39:26;;;;;;;6.15;2.70;;;;;;;;;;5033494;28;20059;-80
2023/03/29 07:41:56;;;;;;;6.47;3.50;;;;;;;;;;5034894;28;20053;-81
2023/03/29 07:44:25;;;;;;;7.35;2.42;;;;;;;;;;5033582;28;20095;-82
2023/03/29 07:46:53;;;;;;;7.95;3.05;;;;;;;;;;5033156;28;20049;-81
2023/03/29 07:49:20;;;;;;;7.75;3.30;;;;;;;;;;5034244;28;20049;-80
2023/03/29 07:51:48;;;;;;;11.73;3.00;;;;;;;;;;5034271;28;20053;-82
2023/03/29 07:54:15;;;;;;;3.40;2.60;;;;;;;;;;5034253;28;20049;-81
2023/03/29 07:56:42;;;;;;;3.83;2.80;;;;;;;;;;5032773;28;20063;-82
2023/03/29 07:59:10;;;;;;;3.78;2.42;;;;;;;;;;5032945;28;20523;-80
2023/03/29 08:01:39;;;;;;;3.65;3.10;;;;;;;;;;5034088;28;20125;-81
2023/03/29 08:04:07;;;;;;;3.00;2.75;;;;;;;;;;5033963;28;20132;-80
2023/03/29 08:06:34;;;;;;;20.30;4.22;;;;;;;;;;5034156;28;20087;-81
2023/03/29 08:09:01;;;;;;;6.82;2.90;;;;;;;;;;5032672;28;20045;-80
2023/03/29 08:11:28;;;;;;;5.28;2.95;;;;;;;;;;5033886;28;20075;-80
2023/03/29 08:13:57;;;;;;;11.05;3.05;;;;;;;;;;5033834;28;20080;-81
2023/03/29 08:16:25;;;;;;;4.80;2.90;;;;;;;;;;5033543;28;20049;-81
2023/03/29 08:18:52;;;;;;;4.85;2.55;;;;;;;;;;5035552;28;20062;-81
2023/03/29 08:21:20;;;;;;;3.65;2.58;;;;;;;;;;5034940;28;20060;-81
2023/03/29 08:23:47;;;;;;;4.78;2.70;;;;;;;;;;5035231;28;20085;-82
2023/03/29 08:26:14;;;;;;;6.25;2.83;;;;;;;;;;5038247;28;20508;-82
2023/03/29 08:28:42;;;;;;;10.68;3.47;;;;;;;;;;5034294;28;20053;-84
2023/03/29 08:31:10;;;;;;;5.57;3.13;;;;;;;;;;5036165;28;20048;-82
2023/03/29 08:33:37;;;;;;;2.72;1.98;;;;;;;;;;5033856;28;20049;-81
2023/03/29 08:36:04;;;;;;;9.50;2.78;;;;;;;;;;5033687;28;20041;-79
2023/03/29 08:38:32;;;;;;;2.53;2.13;;;;;;;;;;5032115;28;20531;-80
2023/03/29 08:40:59;;;;;;;3.80;2.28;;;;;;;;;;5032744;28;20055;-80
2023/03/29 08:43:46;;;;;;;6.20;2.53;;;;;;;;;;5033469;28;20053;-81
2023/03/29 08:46:22;;;;;;;2.88;2.20;;;;;;;;;;5033202;28;20104;-82
2023/03/29 08:48:55;;;;;;;7.35;2.20;;;;;;;;;;5031950;28;20451;-81
2023/03/29 08:51:27;;;;;;;4.63;2.42;;;;;;;;;;5033709;28;20045;-82
2023/03/29 08:53:58;;;;;;;5.45;2.85;;;;;;;;;;5033062;28;20065;-81
2023/03/29 08:56:30;;;;;;;4.75;2.65;;;;;;;;;;5032513;28;20500;-81
2023/03/29 08:59:00;;;;;;;4.10;2.80;;;;;;;;;;5032048;28;20049;-79
2023/03/29 09:01:30;;;;;;;3.80;2.63;;;;;;;;;;5032761;28;20059;-81
2023/03/29 09:04:13;;;;;;;2.80;1.80;;;;;;;;;;5032086;28;20052;-81
2023/03/29 09:06:41;;;;;;;5.97;2.50;;;;;;;;;;5032550;28;20100;-81
2023/03/29 09:09:13;;;;;;;2.78;2.00;;;;;;;;;;5031376;28;20052;-80
2023/03/29 09:11:50;;;;;;;2.47;2.20;;;;;;;;;;5031706;28;20567;-82
2023/03/29 09:14:42;;;;;;;5.63;2.10;;;;;;;;;;5033231;28;20471;-80
2023/03/29 09:17:12;;;;;;;3.25;2.30;;;;;;;;;;5031917;28;20045;-80
2023/03/29 09:19:45;;;;;;;3.58;1.98;;;;;;;;;;5031934;28;20144;-81
2023/03/29 09:22:19;;;;;;;4.15;2.05;;;;;;;;;;5033167;28;20599;-81
2023/03/29 09:25:20;;;;;;;5.55;2.10;;;;;;;;;;5033068;28;20129;-82
2023/03/29 09:27:49;;;;;;;14.27;2.60;;;;;;;;;;4990540;28;20088;-82
2023/03/29 09:30:26;;;;;;;4.57;1.75;;;;;;;;;;5033092;28;20081;-81
2023/03/29 09:32:53;;;;;;;2.30;2.10;;;;;;;;;;5032884;28;20421;-82
2023/03/29 09:35:21;;;;;;;3.75;1.90;;;;;;;;;;5032776;28;20049;-79
2023/03/29 09:37:50;;;;;;;5.00;2.10;;;;;;;;;;5032762;28;20056;-80
2023/03/29 09:40:20;;;;;;;3.53;1.85;;;;;;;;;;5033129;28;20479;-80
2023/03/29 09:42:49;;;;;;;2.50;2.30;;;;;;;;;;5032810;28;20049;-79
2023/03/29 09:45:16;;;;;;;2.05;1.90;;;;;;;;;;5031306;28;20497;-81
2023/03/29 09:47:49;;;;;;;3.17;2.20;;;;;;;;;;5033112;28;20484;-81
2023/03/29 09:50:20;;;;;;;3.35;2.35;;;;;;;;;;5032859;28;20099;-82
2023/03/29 09:52:58;;;;;;;3.75;2.20;;;;;;;;;;5035003;28;20072;-81
2023/03/29 09:55:30;;;;;;;2.40;2.17;;;;;;;;;;5036592;28;20493;-80
2023/03/29 09:57:59;;;;;;;5.88;2.20;;;;;;;;;;5034994;28;20049;-78
2023/03/29 10:00:26;;;;;;;21.23;2.65;;;;;;;;;;5035453;28;20053;-79
2023/03/29 10:02:54;;;;;;;5.55;2.40;;;;;;;;;;5034941;28;20136;-80
2023/03/29 10:05:24;;;;;;;9.05;2.60;;;;;;;;;;5034916;28;20049;-80
2023/03/29 10:07:53;;;;;;;2.20;2.00;;;;;;;;;;5034821;28;20149;-80
2023/03/29 10:10:27;;;;;;;5.68;2.13;;;;;;;;;;5034804;28;20041;-80
2023/03/29 10:12:58;;;;;;;5.90;2.35;;;;;;;;;;5036362;28;20464;-80
2023/03/29 10:15:29;;;;;;;2.65;2.30;;;;;;;;;;5035827;28;20136;-79
2023/03/29 10:17:58;;;;;;;6.03;2.50;;;;;;;;;;5036296;28;20416;-83
2023/03/29 10:20:25;;;;;;;2.40;2.10;;;;;;;;;;5035957;28;20072;-81
2023/03/29 10:22:57;;;;;;;3.40;2.40;;;;;;;;;;5035946;28;20057;-81
2023/03/29 10:25:30;;;;;;;2.10;2.00;;;;;;;;;;5034705;28;20067;-80
2023/03/29 10:28:03;;;;;;;4.30;2.17;;;;;;;;;;5035807;28;20060;-80
2023/03/29 10:30:31;;;;;;;3.15;2.20;;;;;;;;;;5035480;28;20193;-80
2023/03/29 10:32:59;;;;;;;3.63;2.30;;;;;;;;;;5035944;28;20042;-80
2023/03/29 10:35:34;;;;;;;2.17;1.73;;;;;;;;;;5035348;28;20427;-78
2023/03/29 10:38:03;;;;;;;2.50;2.15;;;;;;;;;;5038566;28;20103;-80
2023/03/29 10:40:32;;;;;;;4.15;1.90;;;;;;;;;;5037051;28;20144;-80
2023/03/29 10:43:00;;;;;;;2.20;2.08;;;;;;;;;;5037561;28;20566;-79
2023/03/29 10:45:29;;;;;;;2.15;1.95;;;;;;;;;;5037464;28;20500;-81
2023/03/29 10:47:58;;;;;;;2.05;1.90;;;;;;;;;;5037217;28;20136;-81
2023/03/29 10:50:32;;;;;;;7.25;2.10;;;;;;;;;;5037436;28;20053;-80
2023/03/29 10:53:00;;;;;;;2.22;1.75;;;;;;;;;;5037087;28;20477;-81
2023/03/29 10:55:32;;;;;;;3.83;2.05;;;;;;;;;;5036270;28;20523;-81
2023/03/29 10:58:20;;;;;;;1.73;1.63;;;;;;;;;;5035576;28;20053;-80
2023/03/29 11:00:57;;;;;;;1.92;1.80;;;;;;;;;;5035192;28;20400;-82
2023/03/29 11:03:31;;;;;;;5.90;2.13;;;;;;;;;;5035214;28;20574;-81
2023/03/29 11:06:13;;;;;;;2.58;2.20;;;;;;;;;;5036201;28;20085;-80
2023/03/29 11:08:43;;;;;;;9.63;2.65;;;;;;;;;;5034703;28;20138;-81
2023/03/29 11:11:16;;;;;;;2.72;2.05;;;;;;;;;;5035968;28;20060;-81
2023/03/29 11:13:47;;;;;;;12.32;2.60;;;;;;;;;;5034839;28;20054;-80
2023/03/29 11:16:24;;;;;;;4.47;1.90;;;;;;;;;;5034525;28;20046;-81
2023/03/29 11:18:57;;;;;;;3.78;1.63;;;;;;;;;;5034118;28;20104;-81
2023/03/29 11:21:33;;;;;;;5.65;1.90;;;;;;;;;;5034715;28;20546;-80
2023/03/29 11:24:25;;;;;;;5.07;1.42;;;;;;;;;;5035426;28;20057;-81
2023/03/29 11:27:12;;;;;;;7.65;2.38;;;;;;;;;;5035437;28;20148;-80
2023/03/29 11:29:59;;;;;;;5.28;1.90;;;;;;;;;;5043509;28;20084;-80
2023/03/29 11:32:30;;;;;;;6.22;1.80;;;;;;;;;;5013627;28;20045;-81
2023/03/29 11:35:06;;;;;;;5.10;1.88;;;;;;;;;;5040644;28;20124;-82
2023/03/29 11:37:36;;;;;;;15.43;2.65;;;;;;;;;;5039192;28;20132;-82
2023/03/29 11:40:24;;;;;;;1.85;1.20;;;;;;;;;;5040339;28;20056;-80
2023/03/29 11:42:53;;;;;;;3.03;1.45;;;;;;;;;;5038205;28;20057;-80
2023/03/29 11:45:36;;;;;;;5.93;1.52;;;;;;;;;;5038611;28;20085;-82
2023/03/29 11:48:06;;;;;;;1.35;1.25;;;;;;;;;;5039836;28;20489;-82
2023/03/29 11:50:47;;;;;;;3.47;1.42;;;;;;;;;;5038894;28;20492;-83
2023/03/29 11:53:19;;;;;;;5.53;1.67;;;;;;;;;;5039477;28;20084;-81
2023/03/29 11:55:47;;;;;;;10.55;1.50;;;;;;;;;;5038958;28;20053;-79
2023/03/29 11:58:14;;;;;;;2.35;1.35;;;;;;;;;;5037456;28;20057;-82
2023/03/29 12:00:41;;;;;;;5.13;2.03;;;;;;;;;;5035837;28;20067;-80
2023/03/29 12:03:14;;;;;;;10.13;1.67;;;;;;;;;;5035198;28;20052;-81
2023/03/29 12:05:45;;;;;;;13.27;2.20;;;;;;;;;;5034996;28;20045;-80
2023/03/29 12:08:15;;;;;;;6.70;1.38;;;;;;;;;;5034815;28;20073;-79
2023/03/29 12:10:45;;;;;;;1.45;1.35;;;;;;;;;;5033544;28;20435;-81
2023/03/29 12:13:16;;;;;;;3.03;1.55;;;;;;;;;;5033301;28;20052;-81
2023/03/29 12:16:12;;;;;;;1.35;1.35;;;;;;;;;;5033334;28;20049;-80
2023/03/29 12:18:41;;;;;;;1.25;1.17;;;;;;;;;;5017453;28;20046;-80
2023/03/29 12:21:16;;;;;;;4.20;1.52;;;;;;;;;;5034460;28;20148;-80
2023/03/29 12:23:44;;;;;;;8.95;1.42;;;;;;;;;;5033172;28;20140;-80
2023/03/29 12:26:11;;;;;;;1.73;1.13;;;;;;;;;;5032789;28;20049;-81
2023/03/29 12:28:55;;;;;;;1.20;1.00;;;;;;;;;;5033075;28;20055;-80
2023/03/29 12:31:31;;;;;;;2.92;1.30;;;;;;;;;;5033747;28;20049;-80
2023/03/29 12:34:17;;;;;;;1.35;1.25;;;;;;;;;;5033596;28;20103;-81
2023/03/29 12:36:47;;;;;;;1.65;1.52;;;;;;;;;;5031981;28;20092;-83
2023/03/29 12:39:15;;;;;;;6.40;1.52;;;;;;;;;;5032409;28;20049;-79
2023/03/29 12:41:47;;;;;;;15.57;1.75;;;;;;;;;;5033244;28;20115;-81
2023/03/29 12:44:16;;;;;;;6.90;1.60;;;;;;;;;;5033802;28;20473;-80
2023/03/29 12:46:43;;;;;;;6.43;1.30;;;;;;;;;;5033389;28;20049;-80
2023/03/29 12:49:20;;;;;;;1.55;1.45;;;;;;;;;;5034573;28;20056;-81
2023/03/29 12:51:47;;;;;;;6.40;1.70;;;;;;;;;;5034573;28;20046;-80
2023/03/29 12:54:14;;;;;;;4.72;1.60;;;;;;;;;;5033283;28;20163;-82
2023/03/29 12:56:51;;;;;;;7.18;1.50;;;;;;;;;;5033402;28;20057;-82
2023/03/29 12:59:45;;;;;;;1.40;1.20;;;;;;;;;;5034937;28;20068;-80
2023/03/29 13:02:12;;;;;;;1.70;1.17;;;;;;;;;;5031497;28;20049;-83
2023/03/29 13:04:43;;;;;;;1.73;1.10;;;;;;;;;;5032048;28;20476;-81
2023/03/29 13:07:13;;;;;;;2.58;1.13;;;;;;;;;;5031896;28;20042;-82
2023/03/29 13:09:48;;;;;;;5.78;1.25;;;;;;;;;;5031473;28;20045;-81
2023/03/29 13:12:16;;;;;;;3.35;0.82;;;;;;;;;;5031686;28;20056;-82
2023/03/29 13:14:44;;;;;;;1.95;0.82;;;;;;;;;;5032871;28;20052;-80
2023/03/29 13:17:32;;;;;;;3.17;1.10;;;;;;;;;;5032778;28;20563;-81
2023/03/29 13:20:09;;;;;;;2.65;1.02;;;;;;;;;;4993003;28;20053;-81
2023/03/29 13:22:36;;;;;;;2.97;0.90;;;;;;;;;;5032741;28;20059;-81
2023/03/29 13:25:04;;;;;;;1.85;1.15;;;;;;;;;;5032604;28;20125;-81
2023/03/29 13:27:44;;;;;;;2.30;1.38;;;;;;;;;;5032310;28;20531;-80
2023/03/29 13:30:21;;;;;;;2.05;0.90;;;;;;;;;;5032934;28;20049;-81
2023/03/29 13:32:55;;;;;;;1.17;1.00;;;;;;;;;;5032468;28;20042;-82
2023/03/29 13:35:41;;;;;;;2.28;1.38;;;;;;;;;;5030922;28;20045;-81
2023/03/29 13:38:14;;;;;;;3.55;1.30;;;;;;;;;;5032986;28;20125;-82
2023/03/29 13:40:53;;;;;;;4.32;1.65;;;;;;;;;;5032770;28;20512;-81
2023/03/29 13:43:31;;;;;;;3.35;1.40;;;;;;;;;;5031764;28;20050;-84
2023/03/29 13:45:59;;;;;;;3.80;1.50;;;;;;;;;;5031844;28;20146;-82
2023/03/29 13:48:27;;;;;;;3.75;1.80;;;;;;;;;;5033017;28;20578;-82
2023/03/29 13:51:06;;;;;;;1.98;1.65;;;;;;;;;;5032780;28;20104;-83
2023/03/29 13:53:36;;;;;;;2.95;1.50;;;;;;;;;;5032381;28;20042;-81
2023/03/29 13:56:05;;;;;;;1.60;1.40;;;;;;;;;;5032782;28;20050;-81
2023/03/29 13:58:42;;;;;;;1.40;1.30;;;;;;;;;;5031302;28;20072;-81
2023/03/29 14:01:25;;;;;;;3.05;1.70;;;;;;;;;;5033049;28;20045;-81
2023/03/29 14:03:53;;;;;;;1.80;1.43;;;;;;;;;;5032740;28;20049;-82
2023/03/29 14:06:39;;;;;;;4.65;1.63;;;;;;;;;;5032694;28;20288;-84
2023/03/29 14:09:08;;;;;;;1.77;1.40;;;;;;;;;;5032478;28;20055;-82
2023/03/29 14:11:35;;;;;;;1.98;1.17;;;;;;;;;;5032686;28;20128;-82
2023/03/29 14:14:04;;;;;;;4.45;1.73;;;;;;;;;;5032862;28;20045;-82
2023/03/29 14:16:32;;;;;;;2.80;1.40;;;;;;;;;;5031214;28;20169;-82
2023/03/29 14:19:03;;;;;;;1.92;1.50;;;;;;;;;;5032475;28;20054;-82
2023/03/29 14:21:30;;;;;;;2.70;1.40;;;;;;;;;;5032328;28;20089;-81
2023/03/29 14:23:59;;;;;;;1.10;1.10;;;;;;;;;;5033602;28;20053;-83
2023/03/29 14:26:34;;;;;;;3.92;1.40;;;;;;;;;;5031527;28;20081;-83
2023/03/29 14:29:02;;;;;;;4.15;1.52;;;;;;;;;;5031457;28;20496;-82
2023/03/29 14:31:31;;;;;;;2.50;1.35;;;;;;;;;;5032798;28;20096;-81
2023/03/29 14:33:59;;;;;;;1.33;1.20;;;;;;;;;;5033068;28;20045;-82
2023/03/29 14:36:27;;;;;;;2.35;1.48;;;;;;;;;;5033066;28;20049;-81
2023/03/29 14:39:00;;;;;;;1.63;1.48;;;;;;;;;;5031732;28;20050;-81
2023/03/29 14:41:32;;;;;;;3.65;1.10;;;;;;;;;;5035417;28;20136;-81
2023/03/29 14:43:59;;;;;;;1.30;1.20;;;;;;;;;;5035662;28;20049;-81
2023/03/29 14:46:27;;;;;;;1.33;1.05;;;;;;;;;;5035444;28;20431;-81
2023/03/29 14:48:55;;;;;;;1.48;1.42;;;;;;;;;;5035729;28;20166;-80
2023/03/29 14:51:29;;;;;;;2.50;1.25;;;;;;;;;;5034028;28;20056;-82
2023/03/29 14:54:00;;;;;;;2.03;1.10;;;;;;;;;;5034082;28;20053;-83
2023/03/29 14:56:27;;;;;;;2.17;1.30;;;;;;;;;;5035370;28;20053;-83
2023/03/29 14:58:55;;;;;;;4.38;2.30;;;;;;;;;;5038241;28;20136;-83
2023/03/29 15:01:24;;;;;;;1.45;1.33;;;;;;;;;;5049285;28;20049;-83
2023/03/29 15:03:55;;;;;;;3.13;1.42;;;;;;;;;;5061558;28;20060;-83